Layer de la Haye, United Kingdom
Current Conditions -  °F | °C
As of 8:50 AM on Sunday 21 Dec 2014 (Local Time) from EGUW Reporting Station
Broken Clouds Broken Clouds  
Wind Chill: 35°   Ceiling: 3500
Heat Index: 43°   Visibility: 6mi
Dew Point: 41°   Wind: 15mph
Humidity: 93%   Direction: 220°SW
Pressure: 30.3"   Gusts: NA
Location:  51.85°N, 0.86°E
Report Text: EGUW 210850Z AUTO 22013KT 9999 SCT006/// BKN035/// 06/05 Q1026
Loading
Personal Weather Stations






























Interactive Weather Map New forecast layout! Learn more

10-Day Weather Forecast

Advertisements
Track Severe Weather on mobile